FWKI/LLW METAR and TAF weather

Enter ICAO airport designator
Station Type Date Time Source
FWKI METAR 2021/03/07 07:00 UTC NOAA

FWKI 070700Z 10007KT 9999 BKN020 20/18 Q1019 NOSIG


Station Type Date Time Source
FWKI Decoded METAR 2021/03/07 07:00 UTC NOAA

Lilongwe International Airport, Malawi (FWKI) 13-47S 033-46E 1229M
Mar 07, 2021 - 02:00 AM EST / 2021.03.07 0700 UTC
Wind: from the E (100 degrees) at 8 MPH (7 KT):0
Visibility: greater than 7 mile(s):0
Sky conditions: mostly cloudy
Temperature: 68 F (20 C)
Dew Point: 64 F (18 C)
Relative Humidity: 88%
Pressure (altimeter): 30.09 in. Hg (1019 hPa)
ob: FWKI 070700Z 10007KT 9999 BKN020 20/18 Q1019 NOSIG
cycle: 7

Station Type Date Time Source
FWKI TAF 2021/03/07 06:33 UTC NOAA

TAF TAF FWKI 070430Z 0706/0812 11008KT 9999 SCT020 BKN080 PROB30
TEMPO 0708/0710 2000 -TSRA FEW023CB BKN025
BECMG 0719/0721 9999 FEW022 BKN080

Example: see airport list